createdAt,value
2019-01-09T00:00:20.128Z,3.70
2019-01-09T00:05:11.126Z,3.50
2019-01-09T00:10:02.044Z,3.40
2019-01-09T00:14:52.972Z,3.30
2019-01-09T00:19:43.916Z,3.30
2019-01-09T00:24:35.623Z,3.80
2019-01-09T00:29:26.518Z,3.80
2019-01-09T00:34:17.452Z,4.00
2019-01-09T00:39:08.369Z,3.80
2019-01-09T00:43:59.314Z,3.60
2019-01-09T00:48:50.214Z,3.40
2019-01-09T00:53:41.132Z,3.30
2019-01-09T00:58:32.047Z,3.20
2019-01-09T01:03:26.799Z,3.20
2019-01-09T01:08:24.580Z,3.90
2019-01-09T01:13:16.352Z,3.90
2019-01-09T01:18:29.772Z,3.90
2019-01-09T01:23:29.423Z,3.50
2019-01-09T01:28:29.517Z,3.40
2019-01-09T01:33:24.478Z,3.30
2019-01-09T01:43:40.059Z,3.10
2019-01-09T01:48:41.199Z,3.10
2019-01-09T01:53:32.223Z,3.50
2019-01-09T01:58:23.104Z,3.90
2019-01-09T02:03:19.918Z,3.80
2019-01-09T02:08:28.740Z,3.40
2019-01-09T02:13:28.661Z,3.30
2019-01-09T02:18:19.558Z,3.20
2019-01-09T02:23:13.391Z,3.10
2019-01-09T02:28:05.090Z,3.00
2019-01-09T02:32:56.004Z,3.00
2019-01-09T02:37:46.922Z,3.40
2019-01-09T02:42:37.826Z,3.80
2019-01-09T02:47:28.724Z,3.70
2019-01-09T02:52:19.634Z,3.50
2019-01-09T02:57:11.261Z,3.10
2019-01-09T03:02:02.905Z,3.00
2019-01-09T03:06:54.584Z,3.00
2019-01-09T03:11:45.474Z,3.00
2019-01-09T03:16:36.378Z,2.90
2019-01-09T03:21:27.290Z,3.30
2019-01-09T03:26:18.990Z,3.60
2019-01-09T03:31:09.891Z,3.60
2019-01-09T03:36:00.840Z,3.40
2019-01-09T03:40:51.736Z,3.30
2019-01-09T03:45:42.634Z,3.10
2019-01-09T03:50:33.537Z,3.00
2019-01-09T03:55:24.451Z,2.90
2019-01-09T04:00:15.413Z,2.80
2019-01-09T04:05:06.309Z,3.20
2019-01-09T04:09:57.280Z,3.60
2019-01-09T04:14:48.190Z,3.50
2019-01-09T04:19:39.194Z,3.40
2019-01-09T04:24:30.098Z,3.20
2019-01-09T04:29:21.067Z,3.00
2019-01-09T04:34:11.957Z,2.90
2019-01-09T04:39:02.870Z,2.80
2019-01-09T04:43:53.796Z,2.80
2019-01-09T04:48:44.708Z,3.10
2019-01-09T04:53:35.634Z,3.60
2019-01-09T04:58:26.546Z,3.50
2019-01-09T05:03:17.462Z,3.30
2019-01-09T05:08:08.379Z,3.10
2019-01-09T05:12:59.325Z,3.00
2019-01-09T05:17:50.337Z,2.80
2019-01-09T05:22:41.243Z,2.80
2019-01-09T05:27:32.142Z,2.70
2019-01-09T05:32:23.051Z,3.00
2019-01-09T05:37:13.963Z,3.50
2019-01-09T05:42:04.874Z,3.40
2019-01-09T05:46:55.891Z,3.20
2019-01-09T05:51:47.020Z,3.00
2019-01-09T05:56:37.912Z,2.90
2019-01-09T06:01:29.654Z,2.70
2019-01-09T06:06:20.590Z,2.70
2019-01-09T06:11:11.481Z,2.60
2019-01-09T06:16:02.487Z,3.00
2019-01-09T06:20:53.390Z,3.40
2019-01-09T06:25:44.344Z,3.30
2019-01-09T06:30:35.991Z,3.00
2019-01-09T06:35:27.630Z,2.80
2019-01-09T06:40:19.260Z,2.70
2019-01-09T06:45:10.933Z,2.60
2019-01-09T06:50:01.867Z,2.60
2019-01-09T06:54:52.805Z,2.60
2019-01-09T06:59:43.698Z,3.00
2019-01-09T07:04:34.602Z,3.30
2019-01-09T07:09:25.501Z,3.30
2019-01-09T07:14:16.495Z,3.10
2019-01-09T07:19:07.396Z,2.90
2019-01-09T07:23:58.318Z,2.70
2019-01-09T07:28:49.331Z,2.60
2019-01-09T07:33:40.288Z,2.50
2019-01-09T07:38:31.918Z,2.70
2019-01-09T07:43:23.616Z,3.20
2019-01-09T07:48:14.547Z,3.20
2019-01-09T07:53:06.236Z,3.00
2019-01-09T07:57:57.886Z,2.70
2019-01-09T08:02:48.832Z,2.70
2019-01-09T08:07:39.737Z,2.60
2019-01-09T08:12:30.638Z,2.50
2019-01-09T08:17:21.534Z,2.40
2019-01-09T08:22:13.231Z,2.50
2019-01-09T08:27:05.624Z,3.00
2019-01-09T08:31:57.279Z,3.10
2019-01-09T08:36:48.168Z,3.10
2019-01-09T08:41:39.829Z,2.80
2019-01-09T08:46:30.735Z,2.70
2019-01-09T08:51:21.633Z,2.60
2019-01-09T08:56:13.288Z,2.40
2019-01-09T09:01:04.956Z,2.30
2019-01-09T09:06:02.939Z,2.30
2019-01-09T09:10:53.846Z,2.30
2019-01-09T09:15:44.913Z,2.60
2019-01-09T09:20:35.926Z,3.10
2019-01-09T09:25:26.834Z,3.00
2019-01-09T09:30:17.738Z,2.90
2019-01-09T09:35:08.678Z,2.70
2019-01-09T09:39:59.586Z,2.60
2019-01-09T09:44:50.562Z,2.50
2019-01-09T09:49:41.540Z,2.40
2019-01-09T09:54:32.436Z,2.40
2019-01-09T09:59:23.392Z,2.70
2019-01-09T10:04:14.263Z,3.20
2019-01-09T10:09:05.192Z,3.20
2019-01-09T10:13:56.090Z,3.00
2019-01-09T10:18:47.398Z,2.80
2019-01-09T10:23:39.093Z,2.60
2019-01-09T10:28:29.994Z,2.60
2019-01-09T10:33:20.992Z,2.50
2019-01-09T10:38:11.896Z,2.50
2019-01-09T10:43:03.543Z,3.00
2019-01-09T10:47:54.516Z,2.90
2019-01-09T10:52:46.173Z,3.20
2019-01-09T10:57:37.811Z,3.00
2019-01-09T11:02:29.549Z,2.90
2019-01-09T11:07:21.211Z,2.80
2019-01-09T11:12:12.114Z,2.80
2019-01-09T11:17:03.762Z,2.70
2019-01-09T11:21:54.714Z,2.70
2019-01-09T11:26:45.603Z,2.70
2019-01-09T11:31:36.521Z,3.00
2019-01-09T11:36:27.404Z,3.50
2019-01-09T11:41:19.078Z,3.40
2019-01-09T11:46:09.982Z,3.30
2019-01-09T11:51:01.631Z,3.10
2019-01-09T11:55:52.658Z,3.10
2019-01-09T12:00:43.571Z,3.00
2019-01-09T12:05:34.468Z,2.90
2019-01-09T12:10:30.264Z,2.90
2019-01-09T12:15:17.028Z,2.90
2019-01-09T12:20:08.653Z,3.60
2019-01-09T12:25:00.361Z,3.50
2019-01-09T12:29:51.253Z,3.50
2019-01-09T12:34:42.162Z,3.30
2019-01-09T12:39:33.069Z,3.10
2019-01-09T12:44:23.978Z,3.00
2019-01-09T12:49:14.951Z,2.90
2019-01-09T12:54:05.867Z,2.90
2019-01-09T12:58:56.770Z,2.90
2019-01-09T13:03:47.757Z,3.20
2019-01-09T13:08:38.670Z,3.70
2019-01-09T13:13:30.322Z,3.40
2019-01-09T13:18:21.967Z,3.30
2019-01-09T13:23:12.879Z,3.30
2019-01-09T13:28:03.818Z,3.20
2019-01-09T13:32:54.723Z,3.10
2019-01-09T13:37:45.636Z,3.00
2019-01-09T13:42:36.538Z,2.90
2019-01-09T13:47:28.170Z,3.80
2019-01-09T13:52:20.406Z,3.70
2019-01-09T13:57:12.114Z,3.60
2019-01-09T14:02:03.022Z,3.60
2019-01-09T14:06:53.906Z,3.40
2019-01-09T14:11:45.546Z,3.10
2019-01-09T14:16:36.454Z,3.10
2019-01-09T14:21:27.366Z,3.10
2019-01-09T14:26:19.089Z,3.10
2019-01-09T14:31:10.724Z,3.60
2019-01-09T14:36:02.367Z,3.70
2019-01-09T14:40:54.020Z,3.60
2019-01-09T14:45:44.922Z,3.60
2019-01-09T14:50:36.901Z,3.30
2019-01-09T14:55:27.793Z,3.30
2019-01-09T15:00:20.421Z,3.00
2019-01-09T15:05:11.378Z,3.10
2019-01-09T15:10:07.067Z,3.00
2019-01-09T15:14:58.804Z,3.50
2019-01-09T15:19:49.831Z,3.50
2019-01-09T15:24:40.739Z,3.70
2019-01-09T15:29:31.670Z,3.60
2019-01-09T15:34:22.694Z,3.40
2019-01-09T15:39:13.602Z,3.20
2019-01-09T15:44:04.682Z,3.10
2019-01-09T15:48:55.602Z,3.00
2019-01-09T15:53:46.598Z,2.90
2019-01-09T15:58:38.303Z,3.20
2019-01-09T16:03:29.325Z,3.10
2019-01-09T16:08:20.986Z,3.50
2019-01-09T16:13:12.680Z,3.40
2019-01-09T16:18:03.636Z,3.40
2019-01-09T16:22:55.278Z,3.00
2019-01-09T16:27:46.988Z,2.90
2019-01-09T16:32:38.007Z,2.90
2019-01-09T16:37:32.300Z,2.80
2019-01-09T16:42:23.246Z,2.80
2019-01-09T16:47:14.962Z,3.50
2019-01-09T16:52:05.879Z,3.50
2019-01-09T16:56:56.821Z,3.50
2019-01-09T17:01:48.539Z,3.10
2019-01-09T17:06:39.571Z,3.00
2019-01-09T17:11:31.293Z,2.80
2019-01-09T17:16:22.310Z,2.80
2019-01-09T17:21:13.212Z,2.70
2019-01-09T17:26:04.199Z,2.70
2019-01-09T17:30:55.109Z,2.90
2019-01-09T17:35:46.030Z,3.30
2019-01-09T17:40:41.260Z,3.20
2019-01-09T17:45:28.597Z,3.10
2019-01-09T17:50:26.318Z,3.00
2019-01-09T17:55:17.347Z,2.80
2019-01-09T18:00:12.259Z,2.70
2019-01-09T18:05:03.158Z,2.70
2019-01-09T18:09:54.198Z,2.60
2019-01-09T18:14:46.737Z,2.60
2019-01-09T18:19:36.891Z,3.30
2019-01-09T18:24:27.890Z,3.30
2019-01-09T18:29:18.806Z,3.20
2019-01-09T18:34:09.711Z,3.10
2019-01-09T18:39:06.653Z,2.90
2019-01-09T18:44:04.574Z,2.80
2019-01-09T18:54:16.359Z,2.60
2019-01-09T18:59:07.259Z,2.70
2019-01-09T19:03:58.163Z,3.10
2019-01-09T19:08:49.810Z,3.30
2019-01-09T19:13:40.774Z,3.30
2019-01-09T19:18:31.691Z,3.20
2019-01-09T19:23:22.622Z,3.00
2019-01-09T19:28:13.535Z,2.90
2019-01-09T19:33:04.462Z,2.80
2019-01-09T19:37:55.471Z,2.80
2019-01-09T19:42:46.398Z,2.70
2019-01-09T19:47:37.319Z,3.00
2019-01-09T19:52:28.226Z,3.50
2019-01-09T19:57:19.170Z,3.50
2019-01-09T20:02:10.183Z,3.40
2019-01-09T20:07:02.642Z,3.10
2019-01-09T20:11:53.674Z,3.10
2019-01-09T20:16:44.566Z,3.00
2019-01-09T20:21:35.496Z,2.90
2019-01-09T20:26:26.396Z,2.90
2019-01-09T20:31:17.369Z,2.90
2019-01-09T20:36:09.067Z,3.60
2019-01-09T20:41:00.002Z,3.60
2019-01-09T20:45:51.016Z,3.60
2019-01-09T20:50:42.027Z,3.40
2019-01-09T20:55:33.012Z,3.30
2019-01-09T21:00:24.678Z,3.10
2019-01-09T21:05:17.692Z,3.10
2019-01-09T21:10:08.565Z,3.10
2019-01-09T21:14:59.607Z,3.00
2019-01-09T21:19:51.325Z,3.80
2019-01-09T21:24:42.243Z,3.80
2019-01-09T21:29:33.171Z,3.70
2019-01-09T21:34:24.116Z,3.60
2019-01-09T21:39:15.869Z,3.30
2019-01-09T21:44:15.637Z,3.20
2019-01-09T21:48:59.320Z,3.10
2019-01-09T21:53:50.323Z,3.10
2019-01-09T21:58:41.243Z,3.10
2019-01-09T22:03:32.149Z,3.30
2019-01-09T22:08:23.075Z,3.80
2019-01-09T22:13:13.994Z,3.80
2019-01-09T22:18:04.942Z,3.70
2019-01-09T22:22:56.625Z,3.30
2019-01-09T22:27:47.523Z,3.30
2019-01-09T22:32:38.496Z,3.20
2019-01-09T22:37:29.514Z,3.10
2019-01-09T22:42:20.535Z,3.00
2019-01-09T22:47:11.451Z,3.20
2019-01-09T22:52:02.346Z,3.70
2019-01-09T22:56:53.285Z,3.80
2019-01-09T23:01:44.186Z,3.60
2019-01-09T23:06:35.084Z,3.40
2019-01-09T23:11:25.987Z,3.30
2019-01-09T23:16:16.894Z,3.10
2019-01-09T23:21:08.587Z,3.00
2019-01-09T23:25:59.562Z,2.90
2019-01-09T23:30:50.466Z,3.00
2019-01-09T23:35:42.165Z,3.60
2019-01-09T23:40:33.070Z,3.60
2019-01-09T23:45:24.059Z,3.50
2019-01-09T23:50:14.955Z,3.40
2019-01-09T23:55:05.940Z,3.20
2019-01-09T23:59:56.846Z,3.00
